sensor_id;sensor_type;location;lat;lon;timestamp;pressure;altitude;pressure_sealevel;temperature;humidity
54882;BME280;40775;51.448;4.742;2022-08-03T00:01:35;101387.91;;;22.71;71.11
54882;BME280;40775;51.448;4.742;2022-08-03T00:04:06;101392.38;;;22.70;71.32
54882;BME280;40775;51.448;4.742;2022-08-03T00:06:34;101396.06;;;22.65;71.28
54882;BME280;40775;51.448;4.742;2022-08-03T00:09:06;101390.72;;;22.65;71.40
54882;BME280;40775;51.448;4.742;2022-08-03T00:11:35;101392.63;;;22.60;71.58
54882;BME280;40775;51.448;4.742;2022-08-03T00:14:04;101389.97;;;22.58;71.56
54882;BME280;40775;51.448;4.742;2022-08-03T00:16:32;101387.25;;;22.60;71.47
54882;BME280;40775;51.448;4.742;2022-08-03T00:19:01;101397.22;;;22.53;71.66
54882;BME280;40775;51.448;4.742;2022-08-03T00:21:29;101393.69;;;22.51;71.72
54882;BME280;40775;51.448;4.742;2022-08-03T00:23:56;101398.25;;;22.44;71.69
54882;BME280;40775;51.448;4.742;2022-08-03T00:26:24;101391.94;;;22.50;72.25
54882;BME280;40775;51.448;4.742;2022-08-03T00:28:51;101392.88;;;22.47;71.74
54882;BME280;40775;51.448;4.742;2022-08-03T00:31:19;101395.56;;;22.47;71.97
54882;BME280;40775;51.448;4.742;2022-08-03T00:34:06;101391.13;;;22.45;72.16
54882;BME280;40775;51.448;4.742;2022-08-03T00:36:34;101390.25;;;22.43;72.32
54882;BME280;40775;51.448;4.742;2022-08-03T00:39:02;101392.16;;;22.38;72.12
54882;BME280;40775;51.448;4.742;2022-08-03T00:41:29;101393.88;;;22.40;72.19
54882;BME280;40775;51.448;4.742;2022-08-03T00:43:56;101392.97;;;22.41;72.11
54882;BME280;40775;51.448;4.742;2022-08-03T00:46:24;101386.81;;;22.38;72.18
54882;BME280;40775;51.448;4.742;2022-08-03T00:48:51;101382.41;;;22.35;72.29
54882;BME280;40775;51.448;4.742;2022-08-03T00:51:22;101387.81;;;22.32;72.36
54882;BME280;40775;51.448;4.742;2022-08-03T00:53:50;101381.63;;;22.30;72.40
54882;BME280;40775;51.448;4.742;2022-08-03T00:56:18;101373.63;;;22.29;72.58
54882;BME280;40775;51.448;4.742;2022-08-03T00:58:45;101375.34;;;22.31;72.64
54882;BME280;40775;51.448;4.742;2022-08-03T01:01:13;101373.75;;;22.23;72.50
54882;BME280;40775;51.448;4.742;2022-08-03T01:03:41;101373.78;;;22.21;72.89
54882;BME280;40775;51.448;4.742;2022-08-03T01:06:19;101371.06;;;22.23;73.02
54882;BME280;40775;51.448;4.742;2022-08-03T01:09:02;101372.97;;;22.16;73.03
54882;BME280;40775;51.448;4.742;2022-08-03T01:14:57;101371.16;;;22.16;73.27
54882;BME280;40775;51.448;4.742;2022-08-03T01:17:46;101366.69;;;22.17;73.42
54882;BME280;40775;51.448;4.742;2022-08-03T01:20:17;101365.94;;;22.10;73.26
54882;BME280;40775;51.448;4.742;2022-08-03T01:23:11;101369.59;;;22.06;73.38
54882;BME280;40775;51.448;4.742;2022-08-03T01:25:58;101365.09;;;22.08;73.72
54882;BME280;40775;51.448;4.742;2022-08-03T01:32:07;101361.59;;;22.05;73.78
54882;BME280;40775;51.448;4.742;2022-08-03T01:35:18;101358.97;;;22.00;73.88
54882;BME280;40775;51.448;4.742;2022-08-03T01:37:59;101354.50;;;22.01;73.58
54882;BME280;40775;51.448;4.742;2022-08-03T01:40:28;101359.97;;;21.95;73.66
54882;BME280;40775;51.448;4.742;2022-08-03T01:42:58;101365.28;;;21.98;74.12
54882;BME280;40775;51.448;4.742;2022-08-03T01:45:27;101355.56;;;21.90;73.83
54882;BME280;40775;51.448;4.742;2022-08-03T01:48:00;101350.22;;;21.92;73.80
54882;BME280;40775;51.448;4.742;2022-08-03T01:50:29;101361.81;;;21.89;74.01
54882;BME280;40775;51.448;4.742;2022-08-03T01:52:58;101355.66;;;21.86;73.71
54882;BME280;40775;51.448;4.742;2022-08-03T01:55:27;101347.66;;;21.84;73.64
54882;BME280;40775;51.448;4.742;2022-08-03T01:57:56;101359.25;;;21.85;74.02
54882;BME280;40775;51.448;4.742;2022-08-03T02:00:35;101353.06;;;21.81;73.93
54882;BME280;40775;51.448;4.742;2022-08-03T02:03:05;101346.03;;;21.77;73.73
54882;BME280;40775;51.448;4.742;2022-08-03T02:05:33;101341.53;;;21.79;74.31
54882;BME280;40775;51.448;4.742;2022-08-03T02:08:06;101348.66;;;21.79;74.21
54882;BME280;40775;51.448;4.742;2022-08-03T02:10:35;101341.53;;;21.79;73.91
54882;BME280;40775;51.448;4.742;2022-08-03T02:13:06;101345.09;;;21.80;74.38
54882;BME280;40775;51.448;4.742;2022-08-03T02:15:37;101347.84;;;21.75;74.24
54882;BME280;40775;51.448;4.742;2022-08-03T02:18:06;101346.97;;;21.75;74.38
54882;BME280;40775;51.448;4.742;2022-08-03T02:20:34;101353.03;;;21.83;74.21
54882;BME280;40775;51.448;4.742;2022-08-03T02:23:05;101346.88;;;21.79;74.35
54882;BME280;40775;51.448;4.742;2022-08-03T02:25:38;101346.88;;;21.79;74.21
54882;BME280;40775;51.448;4.742;2022-08-03T02:28:14;101341.63;;;21.75;74.29
54882;BME280;40775;51.448;4.742;2022-08-03T02:30:45;101358.59;;;21.72;74.07
54882;BME280;40775;51.448;4.742;2022-08-03T02:33:24;101345.28;;;21.69;74.00
54882;BME280;40775;51.448;4.742;2022-08-03T02:35:52;101342.63;;;21.69;74.12
54882;BME280;40775;51.448;4.742;2022-08-03T02:38:25;101339.97;;;21.68;74.15
54882;BME280;40775;51.448;4.742;2022-08-03T02:40:55;101349.69;;;21.72;73.89
54882;BME280;40775;51.448;4.742;2022-08-03T02:43:23;101347.06;;;21.69;73.90
54882;BME280;40775;51.448;4.742;2022-08-03T02:45:52;101346.25;;;21.65;73.83
54882;BME280;40775;51.448;4.742;2022-08-03T02:48:24;101341.88;;;21.59;74.17
54882;BME280;40775;51.448;4.742;2022-08-03T02:50:54;101340.22;;;21.52;73.79
54882;BME280;40775;51.448;4.742;2022-08-03T02:53:26;101346.41;;;21.54;74.07
54882;BME280;40775;51.448;4.742;2022-08-03T02:55:55;101343.84;;;21.48;74.28
54882;BME280;40775;51.448;4.742;2022-08-03T02:58:23;101329.75;;;21.40;73.97
54882;BME280;40775;51.448;4.742;2022-08-03T03:00:52;101334.16;;;21.43;74.55
54882;BME280;40775;51.448;4.742;2022-08-03T03:03:20;101343.81;;;21.50;74.65
54882;BME280;40775;51.448;4.742;2022-08-03T03:05:49;101332.28;;;21.48;74.53
54882;BME280;40775;51.448;4.742;2022-08-03T03:08:23;101328.78;;;21.44;74.51
54882;BME280;40775;51.448;4.742;2022-08-03T03:10:59;101327.00;;;21.45;74.61
54882;BME280;40775;51.448;4.742;2022-08-03T03:13:31;101328.03;;;21.38;74.66
54882;BME280;40775;51.448;4.742;2022-08-03T03:16:01;101325.34;;;21.38;74.76
54882;BME280;40775;51.448;4.742;2022-08-03T03:18:32;101325.34;;;21.36;74.76
54882;BME280;40775;51.448;4.742;2022-08-03T03:21:02;101321.88;;;21.31;75.06
54882;BME280;40775;51.448;4.742;2022-08-03T03:23:30;101321.00;;;21.31;74.92
54882;BME280;40775;51.448;4.742;2022-08-03T03:26:00;101318.25;;;21.34;74.92
54882;BME280;40775;51.448;4.742;2022-08-03T03:28:29;101314.78;;;21.28;75.16
54882;BME280;40775;51.448;4.742;2022-08-03T03:30:57;101319.25;;;21.28;74.98
54882;BME280;40775;51.448;4.742;2022-08-03T03:33:25;101314.75;;;21.32;75.14
54882;BME280;40775;51.448;4.742;2022-08-03T03:35:55;101313.88;;;21.29;75.34
54882;BME280;40775;51.448;4.742;2022-08-03T03:38:23;101323.59;;;21.34;75.41
54882;BME280;40775;51.448;4.742;2022-08-03T03:40:51;101331.66;;;21.31;75.47
54882;BME280;40775;51.448;4.742;2022-08-03T03:43:18;101322.81;;;21.28;75.45
54882;BME280;40775;51.448;4.742;2022-08-03T03:45:49;101328.94;;;21.37;75.78
54882;BME280;40775;51.448;4.742;2022-08-03T03:48:18;101323.72;;;21.27;75.82
54882;BME280;40775;51.448;4.742;2022-08-03T03:50:49;101319.25;;;21.28;75.96
54882;BME280;40775;51.448;4.742;2022-08-03T03:53:17;101327.28;;;21.26;75.89
54882;BME280;40775;51.448;4.742;2022-08-03T03:55:45;101327.25;;;21.29;75.94
54882;BME280;40775;51.448;4.742;2022-08-03T03:58:29;101323.78;;;21.21;75.91
54882;BME280;40775;51.448;4.742;2022-08-03T04:00:57;101326.47;;;21.20;76.12
54882;BME280;40775;51.448;4.742;2022-08-03T04:03:24;101320.31;;;21.16;75.94
54882;BME280;40775;51.448;4.742;2022-08-03T04:05:52;101327.38;;;21.20;76.03
54882;BME280;40775;51.448;4.742;2022-08-03T04:08:38;101316.84;;;21.11;76.20
54882;BME280;40775;51.448;4.742;2022-08-03T04:11:26;101319.53;;;21.10;76.50
54882;BME280;40775;51.448;4.742;2022-08-03T04:14:17;101320.41;;;21.10;76.43
54882;BME280;40775;51.448;4.742;2022-08-03T04:17:03;101325.72;;;21.12;76.44
54882;BME280;40775;51.448;4.742;2022-08-03T04:19:33;101323.03;;;21.13;76.47
54882;BME280;40775;51.448;4.742;2022-08-03T04:22:08;101324.81;;;21.13;76.33
54882;BME280;40775;51.448;4.742;2022-08-03T04:24:47;101326.63;;;21.11;76.12
54882;BME280;40775;51.448;4.742;2022-08-03T04:27:19;101332.00;;;21.09;76.19
54882;BME280;40775;51.448;4.742;2022-08-03T04:29:50;101330.19;;;21.08;76.19
54882;BME280;40775;51.448;4.742;2022-08-03T04:32:19;101330.19;;;21.08;76.55
54882;BME280;40775;51.448;4.742;2022-08-03T04:34:47;101335.53;;;21.08;76.72
54882;BME280;40775;51.448;4.742;2022-08-03T04:40:06;101340.88;;;21.11;76.47
54882;BME280;40775;51.448;4.742;2022-08-03T04:42:37;101347.13;;;21.10;77.01
54882;BME280;40775;51.448;4.742;2022-08-03T04:45:06;101354.22;;;21.11;76.91
54882;BME280;40775;51.448;4.742;2022-08-03T04:47:37;101347.00;;;21.16;77.04
54882;BME280;40775;51.448;4.742;2022-08-03T04:50:06;101348.72;;;21.23;76.96
54882;BME280;40775;51.448;4.742;2022-08-03T04:52:39;101354.97;;;21.19;77.04
54882;BME280;40775;51.448;4.742;2022-08-03T04:55:07;101354.03;;;21.22;77.03
54882;BME280;40775;51.448;4.742;2022-08-03T04:57:36;101354.06;;;21.23;76.93
54882;BME280;40775;51.448;4.742;2022-08-03T05:00:04;101356.66;;;21.26;76.98
54882;BME280;40775;51.448;4.742;2022-08-03T05:02:32;101361.09;;;21.27;76.88
54882;BME280;40775;51.448;4.742;2022-08-03T05:05:01;101365.50;;;21.30;76.75
54882;BME280;40775;51.448;4.742;2022-08-03T05:07:28;101364.53;;;21.37;76.25
54882;BME280;40775;51.448;4.742;2022-08-03T05:10:04;101364.53;;;21.37;76.41
54882;BME280;40775;51.448;4.742;2022-08-03T05:12:43;101367.94;;;21.47;76.19
54882;BME280;40775;51.448;4.742;2022-08-03T05:15:11;101368.66;;;21.56;76.27
54882;BME280;40775;51.448;4.742;2022-08-03T05:17:39;101366.94;;;21.52;76.08
54882;BME280;40775;51.448;4.742;2022-08-03T05:20:07;101374.88;;;21.57;76.17
54882;BME280;40775;51.448;4.742;2022-08-03T05:22:34;101372.16;;;21.60;76.00
54882;BME280;40775;51.448;4.742;2022-08-03T05:25:02;101369.34;;;21.69;75.90
54882;BME280;40775;51.448;4.742;2022-08-03T05:27:29;101371.00;;;21.75;75.95
54882;BME280;40775;51.448;4.742;2022-08-03T05:29:57;101376.22;;;21.82;75.60
54882;BME280;40775;51.448;4.742;2022-08-03T05:32:45;101393.28;;;23.50;72.32
54882;BME280;40775;51.448;4.742;2022-08-03T05:35:12;101394.72;;;24.34;68.79
54882;BME280;40775;51.448;4.742;2022-08-03T05:38:01;101382.28;;;24.92;66.09
54882;BME280;40775;51.448;4.742;2022-08-03T05:40:29;101377.56;;;25.30;64.43
54882;BME280;40775;51.448;4.742;2022-08-03T05:42:57;101385.75;;;25.53;63.33
54882;BME280;40775;51.448;4.742;2022-08-03T05:45:25;101386.97;;;25.71;62.68
54882;BME280;40775;51.448;4.742;2022-08-03T05:47:55;101381.19;;;25.83;61.94
54882;BME280;40775;51.448;4.742;2022-08-03T05:50:23;101380.81;;;25.94;61.34
54882;BME280;40775;51.448;4.742;2022-08-03T05:52:53;101388.41;;;26.07;60.94
54882;BME280;40775;51.448;4.742;2022-08-03T05:55:21;101388.25;;;26.12;60.28
54882;BME280;40775;51.448;4.742;2022-08-03T05:57:48;101377.13;;;26.21;60.01
54882;BME280;40775;51.448;4.742;2022-08-03T06:00:16;101383.16;;;26.28;59.77
54882;BME280;40775;51.448;4.742;2022-08-03T06:02:45;101377.66;;;26.32;59.32
54882;BME280;40775;51.448;4.742;2022-08-03T06:05:12;101380.19;;;26.37;59.14
54882;BME280;40775;51.448;4.742;2022-08-03T06:07:39;101380.97;;;26.40;59.21
54882;BME280;40775;51.448;4.742;2022-08-03T06:10:07;101376.34;;;26.44;59.07
54882;BME280;40775;51.448;4.742;2022-08-03T06:12:55;101374.34;;;26.49;58.89
54882;BME280;40775;51.448;4.742;2022-08-03T06:15:22;101372.34;;;26.54;58.55
54882;BME280;40775;51.448;4.742;2022-08-03T06:17:51;101380.34;;;26.57;58.58
54882;BME280;40775;51.448;4.742;2022-08-03T06:20:19;101382.84;;;26.62;58.67
54882;BME280;40775;51.448;4.742;2022-08-03T06:22:53;101384.44;;;26.67;57.97
54882;BME280;40775;51.448;4.742;2022-08-03T06:25:27;101382.69;;;26.66;57.91
54882;BME280;40775;51.448;4.742;2022-08-03T06:27:55;101387.75;;;26.74;57.73
54882;BME280;40775;51.448;4.742;2022-08-03T06:30:22;101383.13;;;26.77;57.46
54882;BME280;40775;51.448;4.742;2022-08-03T06:32:50;101380.44;;;26.77;57.28
54882;BME280;40775;51.448;4.742;2022-08-03T06:35:19;101383.88;;;26.81;57.49
54882;BME280;40775;51.448;4.742;2022-08-03T06:37:49;101383.63;;;26.89;57.07
54882;BME280;40775;51.448;4.742;2022-08-03T06:40:22;101385.59;;;26.84;56.89
54882;BME280;40775;51.448;4.742;2022-08-03T06:42:58;101392.75;;;26.85;57.18
54882;BME280;40775;51.448;4.742;2022-08-03T06:45:26;101392.50;;;26.91;56.95
54882;BME280;40775;51.448;4.742;2022-08-03T06:48:06;101390.75;;;26.90;56.64
54882;BME280;40775;51.448;4.742;2022-08-03T06:50:36;101387.94;;;26.93;56.66
54882;BME280;40775;51.448;4.742;2022-08-03T06:53:04;101386.06;;;26.95;56.81
54882;BME280;40775;51.448;4.742;2022-08-03T06:55:32;101397.56;;;27.00;56.61
54882;BME280;40775;51.448;4.742;2022-08-03T06:58:07;101394.56;;;27.07;56.42
54882;BME280;40775;51.448;4.742;2022-08-03T07:00:35;101402.66;;;27.07;56.74
54882;BME280;40775;51.448;4.742;2022-08-03T07:03:02;101391.75;;;27.10;56.80
54882;BME280;40775;51.448;4.742;2022-08-03T07:05:30;101399.25;;;27.02;56.94
54882;BME280;40775;51.448;4.742;2022-08-03T07:07:59;101399.19;;;27.04;56.94
54882;BME280;40775;51.448;4.742;2022-08-03T07:10:28;101401.78;;;27.07;56.83
54882;BME280;40775;51.448;4.742;2022-08-03T07:12:55;101410.75;;;27.07;57.52
54882;BME280;40775;51.448;4.742;2022-08-03T07:15:24;101403.59;;;27.06;57.08
54882;BME280;40775;51.448;4.742;2022-08-03T07:18:11;101402.59;;;27.09;58.26
54882;BME280;40775;51.448;4.742;2022-08-03T07:20:38;101405.06;;;27.15;58.46
54882;BME280;40775;51.448;4.742;2022-08-03T07:23:06;101397.59;;;27.22;58.66
54882;BME280;40775;51.448;4.742;2022-08-03T07:25:34;101406.69;;;27.19;58.54
54882;BME280;40775;51.448;4.742;2022-08-03T07:28:02;101410.34;;;27.18;59.27
54882;BME280;40775;51.448;4.742;2022-08-03T07:30:29;101415.72;;;27.18;59.09
54882;BME280;40775;51.448;4.742;2022-08-03T07:32:57;101420.19;;;27.19;58.99
54882;BME280;40775;51.448;4.742;2022-08-03T07:35:24;101421.25;;;27.15;57.48
54882;BME280;40775;51.448;4.742;2022-08-03T07:37:53;101417.75;;;27.12;57.54
54882;BME280;40775;51.448;4.742;2022-08-03T07:40:21;101412.38;;;27.12;58.14
54882;BME280;40775;51.448;4.742;2022-08-03T07:42:52;101414.19;;;27.11;57.66
54882;BME280;40775;51.448;4.742;2022-08-03T07:45:19;101411.78;;;27.27;60.50
54882;BME280;40775;51.448;4.742;2022-08-03T07:47:50;101409.00;;;27.28;59.58
54882;BME280;40775;51.448;4.742;2022-08-03T07:50:20;101415.97;;;27.34;60.83
54882;BME280;40775;51.448;4.742;2022-08-03T07:52:49;101413.06;;;27.40;60.08
54882;BME280;40775;51.448;4.742;2022-08-03T07:55:19;101416.63;;;27.40;59.55
54882;BME280;40775;51.448;4.742;2022-08-03T07:57:47;101417.34;;;27.22;58.18
54882;BME280;40775;51.448;4.742;2022-08-03T08:00:25;101411.34;;;27.16;57.90
54882;BME280;40775;51.448;4.742;2022-08-03T08:02:52;101411.41;;;27.14;58.02
54882;BME280;40775;51.448;4.742;2022-08-03T08:05:19;101407.91;;;27.12;57.82
54882;BME280;40775;51.448;4.742;2022-08-03T08:07:47;101402.38;;;27.15;58.06
54882;BME280;40775;51.448;4.742;2022-08-03T08:10:17;101399.63;;;27.17;57.73
54882;BME280;40775;51.448;4.742;2022-08-03T08:12:45;101401.69;;;27.32;59.37
54882;BME280;40775;51.448;4.742;2022-08-03T08:15:13;101402.50;;;27.34;60.11
54882;BME280;40775;51.448;4.742;2022-08-03T08:17:49;101396.41;;;27.29;58.77
54882;BME280;40775;51.448;4.742;2022-08-03T08:20:32;101400.31;;;27.44;61.44
54882;BME280;40775;51.448;4.742;2022-08-03T08:23:06;101393.47;;;27.35;59.76
54882;BME280;40775;51.448;4.742;2022-08-03T08:25:54;101399.38;;;27.45;61.76
54882;BME280;40775;51.448;4.742;2022-08-03T08:28:22;101396.09;;;27.36;59.84
54882;BME280;40775;51.448;4.742;2022-08-03T08:31:00;101397.97;;;27.34;58.86
54882;BME280;40775;51.448;4.742;2022-08-03T08:33:27;101385.88;;;27.23;57.96
54882;BME280;40775;51.448;4.742;2022-08-03T08:36:14;101393.97;;;27.45;62.13
54882;BME280;40775;51.448;4.742;2022-08-03T08:38:42;101393.53;;;27.55;61.57
54882;BME280;40775;51.448;4.742;2022-08-03T08:41:12;101394.13;;;27.63;59.15
54882;BME280;40775;51.448;4.742;2022-08-03T08:43:40;101390.53;;;27.63;58.97
54882;BME280;40775;51.448;4.742;2022-08-03T08:46:11;101389.47;;;27.45;58.20
54882;BME280;40775;51.448;4.742;2022-08-03T08:48:50;101389.53;;;27.65;62.06
54882;BME280;40775;51.448;4.742;2022-08-03T08:51:20;101388.13;;;27.55;60.84
54882;BME280;40775;51.448;4.742;2022-08-03T08:53:51;101384.13;;;27.44;59.10
54882;BME280;40775;51.448;4.742;2022-08-03T08:56:19;101390.91;;;27.54;60.92
54882;BME280;40775;51.448;4.742;2022-08-03T08:58:54;101390.00;;;27.31;57.90
54882;BME280;40775;51.448;4.742;2022-08-03T09:01:24;101388.94;;;27.35;57.99
54882;BME280;40775;51.448;4.742;2022-08-03T09:03:53;101391.50;;;27.38;57.80
54882;BME280;40775;51.448;4.742;2022-08-03T09:06:21;101391.25;;;27.68;63.12
54882;BME280;40775;51.448;4.742;2022-08-03T09:08:49;101388.88;;;27.59;60.98
54882;BME280;40775;51.448;4.742;2022-08-03T09:11:21;101391.84;;;27.53;58.67
54882;BME280;40775;51.448;4.742;2022-08-03T09:14:10;101391.16;;;27.48;58.29
54882;BME280;40775;51.448;4.742;2022-08-03T09:16:59;101392.72;;;27.31;57.41
54882;BME280;40775;51.448;4.742;2022-08-03T09:19:30;101392.59;;;27.56;58.92
54882;BME280;40775;51.448;4.742;2022-08-03T09:22:15;101393.53;;;27.33;57.22
54882;BME280;40775;51.448;4.742;2022-08-03T09:25:14;101392.66;;;27.33;57.09
54882;BME280;40775;51.448;4.742;2022-08-03T09:27:50;101390.47;;;27.43;57.22
54882;BME280;40775;51.448;4.742;2022-08-03T09:30:19;101383.84;;;27.73;63.58
54882;BME280;40775;51.448;4.742;2022-08-03T09:33:09;101391.56;;;27.59;59.16
54882;BME280;40775;51.448;4.742;2022-08-03T09:35:45;101391.22;;;27.46;57.76
54882;BME280;40775;51.448;4.742;2022-08-03T09:38:24;101385.84;;;27.68;63.10
54882;BME280;40775;51.448;4.742;2022-08-03T09:40:55;101386.81;;;27.87;62.30
54882;BME280;40775;51.448;4.742;2022-08-03T09:43:27;101384.47;;;28.00;62.75
54882;BME280;40775;51.448;4.742;2022-08-03T09:46:04;101387.03;;;28.03;63.57
54882;BME280;40775;51.448;4.742;2022-08-03T09:48:33;101391.47;;;28.04;63.24
54882;BME280;40775;51.448;4.742;2022-08-03T09:51:03;101385.72;;;27.91;61.61
54882;BME280;40775;51.448;4.742;2022-08-03T09:53:45;101387.81;;;27.85;61.41
54882;BME280;40775;51.448;4.742;2022-08-03T09:59:05;101383.47;;;28.23;55.48
54882;BME280;40775;51.448;4.742;2022-08-03T10:01:34;101376.66;;;28.35;57.41
54882;BME280;40775;51.448;4.742;2022-08-03T10:04:01;101377.06;;;28.85;50.94
54882;BME280;40775;51.448;4.742;2022-08-03T10:06:31;101385.47;;;28.58;52.61
54882;BME280;40775;51.448;4.742;2022-08-03T10:09:08;101381.22;;;28.53;59.54
54882;BME280;40775;51.448;4.742;2022-08-03T10:11:37;101377.97;;;28.45;55.75
54882;BME280;40775;51.448;4.742;2022-08-03T10:14:10;101379.63;;;28.68;55.57
54882;BME280;40775;51.448;4.742;2022-08-03T10:16:46;101381.25;;;29.28;48.84
54882;BME280;40775;51.448;4.742;2022-08-03T10:19:14;101378.22;;;28.98;51.10
54882;BME280;40775;51.448;4.742;2022-08-03T10:21:51;101379.31;;;28.94;57.60
54882;BME280;40775;51.448;4.742;2022-08-03T10:24:24;101376.22;;;28.83;58.08
54882;BME280;40775;51.448;4.742;2022-08-03T10:27:00;101370.28;;;28.56;57.23
54882;BME280;40775;51.448;4.742;2022-08-03T10:29:34;101381.91;;;28.77;54.68
54882;BME280;40775;51.448;4.742;2022-08-03T10:32:07;101381.38;;;28.69;59.95
54882;BME280;40775;51.448;4.742;2022-08-03T10:34:40;101379.78;;;28.65;61.17
54882;BME280;40775;51.448;4.742;2022-08-03T10:37:11;101373.59;;;28.81;59.44
54882;BME280;40775;51.448;4.742;2022-08-03T10:39:43;101370.66;;;29.23;51.73
54882;BME280;40775;51.448;4.742;2022-08-03T10:42:25;101365.09;;;28.70;53.91
54882;BME280;40775;51.448;4.742;2022-08-03T10:45:05;101372.69;;;28.62;57.21
54882;BME280;40775;51.448;4.742;2022-08-03T10:47:33;101379.03;;;28.61;59.76
54882;BME280;40775;51.448;4.742;2022-08-03T10:50:02;101373.84;;;28.56;64.49
54882;BME280;40775;51.448;4.742;2022-08-03T10:52:29;101359.50;;;29.12;55.60
54882;BME280;40775;51.448;4.742;2022-08-03T11:01:54;101348.09;;;29.61;52.19
54882;BME280;40775;51.448;4.742;2022-08-03T11:04:27;101349.28;;;29.72;51.32
54882;BME280;40775;51.448;4.742;2022-08-03T11:09:44;101342.25;;;28.96;54.06
54882;BME280;40775;51.448;4.742;2022-08-03T11:12:25;101345.75;;;28.60;54.24
54882;BME280;40775;51.448;4.742;2022-08-03T11:15:06;101354.13;;;28.73;62.02
54882;BME280;40775;51.448;4.742;2022-08-03T11:17:35;101341.72;;;28.50;56.37
54882;BME280;40775;51.448;4.742;2022-08-03T11:20:56;101340.44;;;28.39;56.80
54882;BME280;40775;51.448;4.742;2022-08-03T11:23:46;101338.91;;;29.10;60.84
54882;BME280;40775;51.448;4.742;2022-08-03T11:26:32;101338.34;;;29.39;57.09
54882;BME280;40775;51.448;4.742;2022-08-03T11:29:28;101333.66;;;30.29;47.65
54882;BME280;40775;51.448;4.742;2022-08-03T11:31:56;101336.00;;;30.02;55.14
54882;BME280;40775;51.448;4.742;2022-08-03T11:34:24;101325.03;;;30.87;46.52
54882;BME280;40775;51.448;4.742;2022-08-03T11:37:20;101330.31;;;30.74;48.03
54882;BME280;40775;51.448;4.742;2022-08-03T11:39:51;101328.19;;;31.11;46.50
54882;BME280;40775;51.448;4.742;2022-08-03T11:47:28;101344.13;;;30.70;49.10
54882;BME280;40775;51.448;4.742;2022-08-03T11:49:57;101340.59;;;31.15;47.11
54882;BME280;40775;51.448;4.742;2022-08-03T11:52:34;101325.66;;;31.08;46.97
54882;BME280;40775;51.448;4.742;2022-08-03T11:55:01;101334.31;;;30.83;53.42
54882;BME280;40775;51.448;4.742;2022-08-03T11:57:35;101332.31;;;30.71;55.05
54882;BME280;40775;51.448;4.742;2022-08-03T12:00:24;101334.69;;;30.60;57.08
54882;BME280;40775;51.448;4.742;2022-08-03T12:03:13;101347.81;;;30.19;57.59
54882;BME280;40775;51.448;4.742;2022-08-03T12:05:46;101339.88;;;30.31;58.37
54882;BME280;40775;51.448;4.742;2022-08-03T12:08:29;101331.19;;;30.75;48.17
54882;BME280;40775;51.448;4.742;2022-08-03T12:10:58;101324.22;;;30.21;50.86
54882;BME280;40775;51.448;4.742;2022-08-03T12:13:27;101327.38;;;30.62;51.41
54882;BME280;40775;51.448;4.742;2022-08-03T12:16:24;101328.31;;;31.25;47.62
54882;BME280;40775;51.448;4.742;2022-08-03T12:19:04;101336.84;;;30.86;47.86
54882;BME280;40775;51.448;4.742;2022-08-03T12:21:45;101330.75;;;30.98;53.59
54882;BME280;40775;51.448;4.742;2022-08-03T12:24:23;101323.91;;;31.07;50.53
54882;BME280;40775;51.448;4.742;2022-08-03T12:26:54;101322.44;;;30.70;49.04
54882;BME280;40775;51.448;4.742;2022-08-03T12:29:26;101336.63;;;30.58;57.49
54882;BME280;40775;51.448;4.742;2022-08-03T12:31:53;101330.41;;;30.56;51.88
54882;BME280;40775;51.448;4.742;2022-08-03T12:34:22;101324.69;;;30.93;51.50
54882;BME280;40775;51.448;4.742;2022-08-03T12:36:52;101325.16;;;30.53;51.31
54882;BME280;40775;51.448;4.742;2022-08-03T12:39:24;101330.22;;;30.59;53.78
54882;BME280;40775;51.448;4.742;2022-08-03T12:41:53;101323.03;;;31.06;50.96
54882;BME280;40775;51.448;4.742;2022-08-03T12:44:32;101318.19;;;31.43;46.08
54882;BME280;40775;51.448;4.742;2022-08-03T12:47:01;101320.72;;;31.46;49.86
54882;BME280;40775;51.448;4.742;2022-08-03T12:49:44;101324.63;;;31.26;52.90
54882;BME280;40775;51.448;4.742;2022-08-03T12:52:12;101326.31;;;31.89;44.20
54882;BME280;40775;51.448;4.742;2022-08-03T12:54:40;101324.19;;;31.18;51.43
54882;BME280;40775;51.448;4.742;2022-08-03T12:57:11;101322.09;;;30.59;50.21
54882;BME280;40775;51.448;4.742;2022-08-03T12:59:43;101311.72;;;30.18;51.23
54882;BME280;40775;51.448;4.742;2022-08-03T13:02:24;101319.34;;;30.27;55.00
54882;BME280;40775;51.448;4.742;2022-08-03T13:04:53;101327.97;;;30.18;60.18
54882;BME280;40775;51.448;4.742;2022-08-03T13:07:21;101316.34;;;30.16;60.68
54882;BME280;40775;51.448;4.742;2022-08-03T13:09:51;101312.03;;;29.95;59.20
54882;BME280;40775;51.448;4.742;2022-08-03T13:12:25;101319.28;;;31.25;47.12
54882;BME280;40775;51.448;4.742;2022-08-03T13:14:56;101309.78;;;32.08;43.19
54882;BME280;40775;51.448;4.742;2022-08-03T13:17:24;101303.78;;;32.45;42.13
54882;BME280;40775;51.448;4.742;2022-08-03T13:19:52;101314.00;;;32.42;45.95
54882;BME280;40775;51.448;4.742;2022-08-03T13:22:26;101310.06;;;32.74;41.21
54882;BME280;40775;51.448;4.742;2022-08-03T13:24:57;101305.00;;;31.97;43.69
54882;BME280;40775;51.448;4.742;2022-08-03T13:27:25;101303.25;;;31.96;47.12
54882;BME280;40775;51.448;4.742;2022-08-03T13:30:13;101310.06;;;31.43;46.34
54882;BME280;40775;51.448;4.742;2022-08-03T13:32:56;101307.28;;;30.66;48.37
54882;BME280;40775;51.448;4.742;2022-08-03T13:35:24;101308.84;;;30.21;49.77
54882;BME280;40775;51.448;4.742;2022-08-03T13:37:52;101308.44;;;30.11;52.21
54882;BME280;40775;51.448;4.742;2022-08-03T13:40:19;101298.19;;;30.83;48.27
54882;BME280;40775;51.448;4.742;2022-08-03T13:42:56;101294.34;;;30.71;49.52
54882;BME280;40775;51.448;4.742;2022-08-03T13:45:23;101291.44;;;30.25;51.45